Latest Weather Observations for Campbelltown

IDN60801

Issued at 11:32 am EST Tuesday 1 September 2015 (issued every 30 minutes, with the page automatically refreshed every 10 minutes)

About weather observations | Map of weather stations | Latest weather observations for NSW | Other Formats
Station Details ID: 068257 Name: CAMPBELLTOWN (MOUNT ANNAN) Lat: -34.06 Lon: 150.77 Height: 112.0 m
Data from the previous 72 hours. | See also: Recent months at Campbelltown
Date/Time
EST
Temp
°C
App
Temp
°C
Dew
Point
Rel
Hum
%
Delta-T
°C
Wind Press
QNH
hPa
Press
MSL
hPa
Rain
since 9 am
mm
Dir
 
Spd
km/h
Gust
km/h
Spd
kts
Gust
kts
01/11:30am 15.9 11.9 0.5 35 6.7 NW 11 19 6 10 - - 0.0
01/11:00am 15.0 11.5 1.2 39 6.0 NNW 9 17 5 9 - - 0.0
01/10:30am 14.0 10.5 1.3 42 5.5 WNW 9 15 5 8 - - 0.0
01/10:00am 13.6 10.4 3.1 49 4.7 SW 9 17 5 9 - - 0.0
01/09:30am 12.4 9.1 2.6 51 4.3 W 9 13 5 7 - - 0.0
01/09:00am 11.5 8.2 4.5 62 3.2 SSW 11 15 6 8 - - 0.0
01/08:30am 11.0 8.8 5.5 69 2.5 S 6 9 3 5 - - 0.0
01/08:00am 9.3 6.9 5.1 75 1.9 S 7 11 4 6 - - 0.0
01/07:30am 7.2 6.1 7.1 99 0.0 S 2 6 1 3 - - 0.0
01/07:00am 4.6 2.6 4.2 97 0.2 S 4 6 2 3 - - 0.0
01/06:30am 4.2 1.7 3.5 95 0.3 S 6 7 3 4 - - 0.0
01/06:00am 4.3 2.0 3.0 91 0.5 S 4 6 2 3 - - 0.0
01/05:30am 5.3 2.9 4.3 93 0.4 S 6 7 3 4 - - 0.0
01/05:00am 4.9 2.2 3.9 93 0.4 SSW 7 9 4 5 - - 0.0
01/04:30am 5.2 2.8 4.2 93 0.4 S 6 7 3 4 - - 0.0
01/04:00am 4.8 2.4 4.1 95 0.3 SSW 6 7 3 4 - - 0.0
01/03:30am 4.6 2.5 3.7 94 0.4 S 4 7 2 4 - - 0.0
01/03:00am 5.4 3.1 4.7 95 0.3 S 6 9 3 5 - - 0.0
01/02:30am 5.0 2.7 4.6 97 0.2 SSW 6 15 3 8 - - 0.0
01/02:00am 4.9 2.9 4.6 98 0.1 S 4 9 2 5 - - 0.0
01/01:30am 5.0 3.9 4.9 99 0.0 CALM 0 0 0 0 - - 0.0
01/01:00am 5.2 4.1 5.1 99 0.0 CALM 0 0 0 0 - - 0.0
01/12:30am 5.2 4.1 5.1 99 0.0 CALM 0 0 0 0 - - 0.0
01/12:00am 5.1 4.0 5.0 99 0.0 CALM 0 0 0 0 - - 0.0
 
Date/Time
EST
Temp
°C
App
Temp
°C
Dew
Point
Rel
Hum
%
Delta-T
°C
Wind Press
QNH
hPa
Press
MSL
hPa
Rain
since 9 am
mm
Dir
 
Spd
km/h
Gust
km/h
Spd
kts
Gust
kts
31/11:30pm 5.4 4.3 5.0 97 0.2 CALM 0 0 0 0 - - 0.0
31/11:00pm 6.0 5.0 5.4 96 0.3 CALM 0 4 0 2 - - 0.0
31/10:30pm 6.9 5.0 6.6 98 0.1 S 6 9 3 5 - - 0.0
31/10:00pm 6.6 4.6 6.3 98 0.1 S 6 9 3 5 - - 0.0
31/09:30pm 6.8 5.2 6.5 98 0.1 S 4 7 2 4 - - 0.0
31/09:00pm 7.0 5.4 6.4 96 0.3 S 4 7 2 4 - - 0.0
31/08:30pm 7.3 5.3 6.2 93 0.5 S 6 7 3 4 - - 0.0
31/08:00pm 7.8 7.0 6.4 91 0.6 CALM 0 0 0 0 - - 0.0
31/07:30pm 8.3 7.5 6.4 88 0.9 CALM 0 0 0 0 - - 0.0
31/07:00pm 9.3 8.5 6.4 82 1.4 CALM 0 0 0 0 - - 0.0
31/06:30pm 10.7 8.8 6.5 75 2.0 S 6 9 3 5 - - 0.0
31/06:00pm 12.2 10.6 6.3 67 2.8 S 4 7 2 4 - - 0.0
31/05:30pm 13.7 11.5 6.1 60 3.6 SSE 7 15 4 8 - - 0.0
31/05:00pm 15.3 12.6 5.5 52 4.7 SE 9 15 5 8 - - 0.0
31/04:30pm 15.9 13.1 5.2 49 5.1 SE 9 17 5 9 - - 0.0
31/04:00pm 17.6 14.7 4.5 42 6.2 ENE 9 19 5 10 - - 0.0
31/03:30pm 18.4 14.6 -0.9 27 8.3 SSW 9 17 5 9 - - 0.0
31/03:00pm 17.8 13.2 -0.9 28 8.0 WSW 13 19 7 10 - - 0.0
31/02:30pm 19.0 15.2 -0.9 26 8.6 SW 9 15 5 8 - - 0.0
31/02:00pm 19.1 15.3 1.6 31 8.0 WNW 11 17 6 9 - - 0.0
31/01:30pm 18.9 14.8 0.0 28 8.3 SW 11 26 6 14 - - 0.0
31/01:00pm 18.6 14.8 1.6 32 7.7 WNW 11 20 6 11 - - 0.0
31/12:30pm 17.6 14.4 2.8 37 6.8 WSW 9 13 5 7 - - 0.0
31/12:00pm 17.3 13.4 3.2 39 6.5 SW 13 24 7 13 - - 0.0
31/11:30am 16.8 13.2 3.1 40 6.3 SW 11 19 6 10 - - 0.0
31/11:00am 15.9 12.9 4.0 45 5.5 WNW 9 19 5 10 - - 0.0
31/10:30am 15.2 11.6 2.7 43 5.6 SSW 11 15 6 8 - - 0.0
31/10:00am 14.9 12.1 5.1 52 4.6 S 9 15 5 8 - - 0.0
31/09:30am 13.8 10.5 6.2 60 3.7 SW 13 20 7 11 - - 0.0
31/09:00am 12.2 9.6 6.3 67 2.8 SW 9 15 5 8 - - 0.0
31/08:30am 11.2 8.5 5.7 69 2.6 SW 9 13 5 7 - - 0.0
31/08:00am 9.7 7.4 5.9 77 1.8 SSW 7 11 4 6 - - 0.0
31/07:30am 7.8 5.4 5.3 84 1.1 S 7 11 4 6 - - 0.0
31/07:00am 6.7 4.4 5.0 89 0.7 S 6 11 3 6 - - 0.0
31/06:30am 6.1 3.8 4.7 91 0.6 S 6 9 3 5 - - 0.0
31/06:00am 6.5 4.0 5.0 90 0.7 SSW 7 11 4 6 - - 0.0
31/05:30am 6.8 4.0 5.1 89 0.8 SSW 9 13 5 7 - - 0.0
31/05:00am 7.0 4.7 5.5 90 0.7 SSW 7 11 4 6 - - 0.0
31/04:30am 7.0 5.2 5.2 88 0.8 SSE 4 9 2 5 - - 0.0
31/04:00am 7.5 4.8 5.5 87 0.9 S 9 13 5 7 - - 0.0
31/03:30am 7.5 5.2 5.6 88 0.9 SSW 7 13 4 7 - - 0.0
31/03:00am 7.8 5.5 5.6 86 1.0 S 7 11 4 6 - - 0.0
31/02:30am 8.2 6.1 5.7 84 1.1 S 6 11 3 6 - - 0.0
31/02:00am 8.7 6.5 6.2 84 1.2 S 7 9 4 5 - - 0.0
31/01:30am 9.0 7.1 6.6 85 1.1 S 6 9 3 5 - - 0.0
31/01:00am 8.8 7.7 6.8 87 0.9 SSW 2 7 1 4 - - 0.0
31/12:30am 9.3 8.6 6.9 85 1.1 CALM 0 0 0 0 - - 0.0
31/12:00am 9.6 8.9 6.9 83 1.3 CALM 0 0 0 0 - - 0.0
 
Date/Time
EST
Temp
°C
App
Temp
°C
Dew
Point
Rel
Hum
%
Delta-T
°C
Wind Press
QNH
hPa
Press
MSL
hPa
Rain
since 9 am
mm
Dir
 
Spd
km/h
Gust
km/h
Spd
kts
Gust
kts
30/11:30pm 10.0 8.8 6.5 79 1.6 SW 2 7 1 4 - - 0.0
30/11:00pm 10.2 8.6 6.5 78 1.7 SW 4 7 2 4 - - 0.0
30/10:30pm 10.5 8.4 6.5 76 1.9 SSW 7 9 4 5 - - 0.0
30/10:00pm 10.4 8.3 6.7 78 1.8 SSW 7 11 4 6 - - 0.0
30/09:30pm 9.9 7.5 7.0 82 1.4 SSW 9 13 5 7 - - 0.0
30/09:00pm 8.6 6.6 6.4 86 1.0 SSW 6 9 3 5 - - 0.0
30/08:30pm 8.1 6.0 5.9 86 1.0 SSW 6 9 3 5 - - 0.0
30/08:00pm 8.4 7.5 5.9 84 1.1 CALM 0 0 0 0 - - 0.0
30/07:30pm 9.0 8.1 6.1 82 1.3 CALM 0 0 0 0 - - 0.0
30/07:00pm 9.0 8.0 5.6 79 1.6 CALM 0 0 0 0 - - 0.0
30/06:30pm 10.1 9.1 5.7 74 2.0 CALM 0 0 0 0 - - 0.0
30/06:00pm 11.5 9.3 5.4 66 2.8 SSE 6 7 3 4 - - 0.0
30/05:30pm 12.2 10.0 5.1 62 3.3 SSE 6 11 3 6 - - 0.0
30/05:00pm 13.6 11.5 5.7 59 3.7 SSE 6 11 3 6 - - 0.0
30/04:30pm 14.6 12.6 6.4 58 4.0 SE 6 11 3 6 - - 0.0
30/04:00pm 15.1 12.9 6.4 56 4.2 SE 7 13 4 7 - - 0.0
30/03:30pm 15.4 13.1 5.9 53 4.6 SSE 7 11 4 6 - - 0.0
30/03:00pm 15.8 13.4 5.1 49 5.1 SE 7 13 4 7 - - 0.0
30/02:30pm 16.7 14.3 4.1 43 5.9 SE 6 11 3 6 - - 0.0
30/02:00pm 17.8 14.6 3.3 38 6.8 SSW 9 15 5 8 - - 0.0
30/01:30pm 17.2 14.7 3.5 40 6.4 SW 6 11 3 6 - - 0.0
30/01:00pm 16.3 13.7 4.4 45 5.6 S 7 13 4 7 - - 0.0
30/12:30pm 18.3 15.5 3.0 36 7.1 NNW 7 13 4 7 - - 0.0
30/12:00pm 16.6 13.1 3.6 42 6.0 SW 11 19 6 10 - - 0.0
30/11:30am 16.6 13.6 4.0 43 5.9 SSW 9 17 5 9 - - 0.0
30/11:00am 15.4 12.2 3.2 44 5.6 SW 9 19 5 10 - - 0.0
30/10:30am 15.4 12.0 4.2 47 5.2 S 11 20 6 11 - - 0.0
30/10:00am 14.3 11.0 4.3 51 4.6 SSW 11 22 6 12 - - 0.0
30/09:30am 13.4 10.5 4.8 56 4.0 SSW 9 17 5 9 - - 0.0
30/09:00am 11.8 9.1 5.4 65 3.0 SSW 9 15 5 8 - - 0.0
30/08:30am 10.1 6.2 3.4 63 2.9 SW 13 19 7 10 - - 0.0
30/08:00am 9.1 6.0 3.7 69 2.4 SSW 9 13 5 7 - - 0.0
30/07:30am 7.4 4.6 3.1 74 1.8 SSW 7 17 4 9 - - 0.0
30/07:00am 5.9 3.0 2.7 80 1.3 SSW 7 13 4 7 - - 0.0
30/06:30am 5.4 2.4 2.2 80 1.3 SSW 7 11 4 6 - - 0.0
30/06:00am 5.5 2.5 2.2 79 1.3 SSW 7 13 4 7 - - 0.0
30/05:30am 6.1 3.1 2.2 76 1.6 SSW 7 17 4 9 - - 0.0
30/05:00am 6.3 2.6 2.2 75 1.7 SSW 11 19 6 10 - - 0.0
30/04:30am 6.7 2.6 2.4 74 1.8 SSW 13 20 7 11 - - 0.0
30/04:00am 6.6 2.5 2.3 74 1.8 SSW 13 20 7 11 - - 0.0
30/03:30am 6.5 2.4 2.2 74 1.8 SSW 13 20 7 11 - - 0.0
30/03:00am 6.6 3.2 2.1 73 1.8 SSW 9 17 5 9 - - 0.0
30/02:30am 6.6 3.6 2.1 73 1.8 SSW 7 13 4 7 - - 0.0
30/02:00am 6.3 3.3 2.2 75 1.7 SSW 7 13 4 7 - - 0.0
30/01:30am 6.0 3.6 2.1 76 1.6 SSW 4 7 2 4 - - 0.0
30/01:00am 6.3 3.6 2.6 77 1.5 SSW 6 11 3 6 - - 0.0
30/12:30am 5.7 3.7 2.4 79 1.4 SSW 2 7 1 4 - - 0.0
30/12:00am 6.5 3.8 2.8 77 1.5 SSW 6 7 3 4 - - 0.0
 
Date/Time
EST
Temp
°C
App
Temp
°C
Dew
Point
Rel
Hum
%
Delta-T
°C
Wind Press
QNH
hPa
Press
MSL
hPa
Rain
since 9 am
mm
Dir
 
Spd
km/h
Gust
km/h
Spd
kts
Gust
kts
29/11:30pm 7.0 3.8 2.9 75 1.7 SSW 9 13 5 7 - - 0.0
29/11:00pm 6.5 3.8 2.9 78 1.5 SSW 6 9 3 5 - - 0.0
29/10:30pm 5.9 4.4 2.9 81 1.2 CALM 0 6 0 3 - - 0.0
29/10:00pm 6.0 3.3 2.6 79 1.4 S 6 7 3 4 - - 0.0
29/09:30pm 6.5 5.0 2.8 77 1.5 CALM 0 0 0 0 - - 0.0
29/09:00pm 7.1 5.3 3.5 78 1.5 SW 2 9 1 5 - - 0.0
29/08:30pm 7.9 5.2 2.4 68 2.3 S 6 6 3 3 - - 0.0
29/08:00pm 8.8 6.0 2.2 63 2.8 SSW 6 9 3 5 - - 0.0
29/07:30pm 9.7 6.3 2.1 59 3.2 SSW 9 13 5 7 - - 0.0
29/07:00pm 8.9 5.7 3.3 68 2.4 SSW 9 11 5 6 - - 0.0
29/06:30pm 9.8 7.2 3.1 63 2.9 SSW 6 7 3 4 - - 0.0
29/06:00pm 12.0 9.2 1.9 50 4.3 SW 6 9 3 5 - - 0.0
29/05:30pm 14.6 11.6 0.5 38 6.0 SW 6 11 3 6 - - 0.0
29/05:00pm 16.2 12.1 -0.1 33 7.0 W 11 19 6 10 - - 0.0
29/04:30pm 17.1 12.8 0.7 33 7.2 WSW 13 19 7 10 - - 0.0
29/04:00pm 17.5 12.8 0.6 32 7.4 WSW 15 24 8 13 - - 0.0
29/03:30pm 17.9 12.9 1.4 33 7.4 WSW 17 28 9 15 - - 0.0
29/03:00pm 18.4 13.7 3.1 36 7.1 SW 17 32 9 17 - - 0.0
29/02:30pm 18.0 13.7 1.1 32 7.5 WSW 13 26 7 14 - - 0.0
29/02:00pm 18.7 15.2 3.7 37 7.1 WSW 11 22 6 12 - - 0.0
29/01:30pm 18.7 15.4 2.5 34 7.5 SSW 9 15 5 8 - - 0.0
29/01:00pm 18.3 15.3 4.1 39 6.8 WNW 9 19 5 10 - - 0.0
29/12:30pm 17.4 15.1 5.7 46 5.7 NNW 7 13 4 7 - - 0.0
29/12:00pm 16.3 12.4 3.4 42 6.0 NNW 13 19 7 10 - - 0.0

Other Formats:

Comma delimited format used in spreadsheet applications
http://www.bom.gov.au/fwo/IDN60801/IDN60801.94757.axf

JavaScript Object Notation format (JSON) in row-major order
http://www.bom.gov.au/fwo/IDN60801/IDN60801.94757.json